Tabella Stazioni Meteo Lazio



Provincia di Frosinone
ID Località Altitudine Data Temp (°C) Temp Min (°C) Temp Max (°C) Hum (%) Pressure (hPa) Wind (Km/h) Wind Dir Wind Gust (Km/h) Wind Gust Max (Km/h) Rain (mm) Dewpoint (°C)
Stazione meteo Campoli Appennino – Via Treo 499 m s.l.m.
ILAZIOPI2 Stazione meteo Pico – Colleponte 114 m s.l.m. 2019-06-21 01:04:29 18.5 18.5 19.4 88 1014.4 0.0 SO 0.0 3.2 0.00 16.5
INOWUND02 Stazione meteo Alvito – Colle Santa Lucia 465 m s.l.m. 2019-04-22 03:27:36 11.8 11.1 13.7 45 1005.3 0.0 SW 1.1 8.6 0.00 0.3
ILAZIOPO8 Stazione meteo Pontecorvo – Via Babuino 94 m s.l.m. 2019-06-21 02:00:12 19.9 19.8 22.2 83 1014.8 4.8 NO 4.8 6.4 0.00 17.0
ILAZIOLA19 Stazione meteo Anagni – Strada Vic.le Collacciano 240 m s.l.m. 2019-06-21 01:59:39 22.1 22.1 23.9 52 1011.0 0.0 SW 0.0 2.2 0.00 12.0
Provincia di Latina
ID Località Altitudine Data Temp (°C) Temp Min (°C) Temp Max (°C) Hum (%) Pressure (hPa) Wind (Km/h) Wind Dir Wind Gust (Km/h) Wind Gust Max (Km/h) Rain (mm) Dewpoint (°C)
ICISTE1 Stazione meteo Cisterna – Centro Storico 81 m s.l.m. 2019-06-21 02:00:09 19.8 19.8 21.0 63 1009.6 3.6 N 6.1 7.2 0.00 12.6
ICISTE2 Stazione meteo Cisterna – Indinvest LT 42 m s.l.m. 2019-06-21 02:00:07 20.8 19.7 20.8 71 1015.0 0.0 NW 0.0 4.8 0.00 15.3
ICISTE3 Stazione meteo Cisterna – San Valentino 93 m s.l.m. 2019-06-21 02:00:07 18.3 18.3 19.5 73 1031.0 0.0 W 0.0 5.0 0.00 13.4
Stazione meteo Latina – Borgo Montello 31 m s.l.m.
ILAZIOLA8 Stazione meteo Latina – Strada Quartaccio 13 m s.l.m. 2019-06-21 01:59:00 17.8 17.8 19.7 86 1012.9 0.0 N 0.0 0.0 0.00 15.4
ISEZZE3 Stazione meteo Sezze – Via Piagge Marine 310 m s.l.m. 2019-06-21 01:59:00 21.0 20.7 21.3 57 1012.8 0.0 NNE 0.0 9.7 0.00 12.1
Provincia di Roma
ID Località Altitudine Data Temp (°C) Temp Min (°C) Temp Max (°C) Hum (%) Pressure (hPa) Wind (Km/h) Wind Dir Wind Gust (Km/h) Wind Gust Max (Km/h) Rain (mm) Dewpoint (°C)
IROCCA2 Stazione meteo Rocca di Papa – Pratoni del Vivaro 528 m s.l.m. 2019-06-21 01:59:25 8.0 8.0 9.0 98 1015.2 0.0 179 0.0 0.0 0.00 7.0
IVELLE13 Stazione meteo Velletri – Crocefissi 227m 227 m s.l.m. 2019-06-21 01:59:46 13.0 13.0 14.0 92 1023.4 2.0 256 2.0 4.0 0.00 12.0
IVELLE10 Stazione meteo Velletri – Crocefissi 259m 259 m s.l.m. 2019-06-21 02:00:07 20.2 18.5 20.2 53 1017.0 3.6 N 6.1 13.3 0.00 10.3
IVELLE11 Stazione meteo Velletri – 5 Archi 188 m s.l.m. 2019-06-21 02:00:05 17.6 17.1 18.5 64 1008.7 2.5 W 3.6 6.1 0.00 10.7
IVELLE12 Stazione meteo Velletri – Centro 380 m s.l.m. 2019-06-21 02:00:01 23.1 22.9 23.6 70 1017.0 2.5 N 5.0 8.6 0.00 17.3
IVELLE14 Stazione meteo Velletri – San Clemente 335 m s.l.m. 2019-06-21 01:59:57 24.3 24.0 24.5 14 1016.9 0.0 N 1.1 92.2 0.00 -4.9
IVELLETR18 Stazione meteo Velletri – Fontana Fiume 512 m s.l.m. 2019-06-21 01:59:55 21.0 20.0 22.0 46 1019.6 6.0 0 7.0 10.0 0.00 9.0
ILAZIOLA23 Stazione meteo Lariano – Centro 370 m s.l.m. 2019-06-21 02:00:42 21.0 21.0 22.0 41 1013.6 4.0 302 8.0 12.0 0.00 7.0
ILAZIOMA6 Stazione meteo Artena – Macere 345 m s.l.m. 2019-06-21 01:59:58 17.0 17.0 19.0 68 1018.6 0.0 0.0 11.0 0.00 11.0
ILAZIOAR6 Stazione meteo Ardea – Via Pavia 20 m s.l.m. 2019-01-27 19:21:20 0.0 0.0 0.0 0 0.0 0.0 N 0.0 0.0 0.00 0.0
ILAZIOPO4 Stazione meteo Pomezia – Via Federico Fellini 78 m s.l.m. 2019-06-21 01:59:10 23.3 23.3 23.6 60 1013.4 0.0 NNW 0.0 3.2 0.00 15.1
Stazione meteo Rocca di Papa – Monte Faete 970 m s.l.m.
Stazione meteo Cerveteri – Madonna dei Canneti 106 m s.l.m.
IALLUMIE2 Stazione meteo Allumiere – Loc. La Bianca 503 m s.l.m. 2019-06-21 02:00:04 21.2 20.7 22.0 50 1016.2 6.1 SE 7.2 7.2 0.00 10.4
Provincia di Viterbo
ID Località Altitudine Data Temp (°C) Temp Min (°C) Temp Max (°C) Hum (%) Pressure (hPa) Wind (Km/h) Wind Dir Wind Gust (Km/h) Wind Gust Max (Km/h) Rain (mm) Dewpoint (°C)
INEPI3 Stazione meteo Nepi – Via Umiltà 216 m s.l.m. 2019-06-21 01:59:55 12.0 12.0 14.0 91 1010.9 0.0 208 0.0 2.0 0.00 11.0
Stazione meteo Civita Castellana – Via del Forte 135 m s.l.m.
IVITERBO7 Stazione meteo Marta – Via Laertina 320 m s.l.m. 2019-06-21 01:04:08 18.9 18.6 19.0 73 1015.9 3.2 W 3.2 6.5 0.00 13.9
ILAZIOVI8 Stazione meteo San Lorenzo Nuovo – Piazza Europa 519 m s.l.m. 2019-06-21 01:04:16 19.6 18.9 19.6 63 1015.5 0.0 ESE 0.0 7.2 0.00 12.3